Time;durP1;ratioP1;P1;durP2;ratioP2;P2;SDS_P1;SDS_P2;PMS_P1;PMS_P2;Temp;Humidity;BMP_temperature;BMP_pressure;BME280_temperature;BME280_humidity;BME280_pressure;Samples;Min_cycle;Max_cycle;Signal;HPM_P1;HPM_P2
2021/04/18 00:00:40;;;;;;;7.17;6.57;;;8.30;99.90;;;;;;5000326;28;20216;-71
2021/04/18 00:03:05;;;;;;;10.53;6.53;;;8.30;99.90;;;;;;5001575;28;20206;-69
2021/04/18 00:05:32;;;;;;;8.67;6.10;;;8.30;99.90;;;;;;4999739;28;21558;-71
2021/04/18 00:08:03;;;;;;;9.40;5.87;;;8.30;99.90;;;;;;5004459;28;20667;-69
2021/04/18 00:10:37;;;;;;;6.77;5.87;;;8.40;99.90;;;;;;5002123;28;20996;-69
2021/04/18 00:13:03;;;;;;;10.10;6.70;;;8.40;99.90;;;;;;5002633;28;20436;-69
2021/04/18 00:15:29;;;;;;;5.63;5.13;;;8.40;99.90;;;;;;5006547;28;20467;-69
2021/04/18 00:17:55;;;;;;;6.53;5.83;;;8.40;99.90;;;;;;5004749;28;20454;-71
2021/04/18 00:20:21;;;;;;;8.43;5.10;;;8.50;99.90;;;;;;5003902;28;20458;-71
2021/04/18 00:22:47;;;;;;;8.10;5.73;;;8.50;99.90;;;;;;5006196;28;20470;-70
2021/04/18 00:25:14;;;;;;;10.47;6.73;;;8.50;99.90;;;;;;5005707;28;20243;-70
2021/04/18 00:27:40;;;;;;;7.50;5.90;;;8.50;99.90;;;;;;5004619;28;20448;-70
2021/04/18 00:30:11;;;;;;;6.00;5.40;;;8.50;99.90;;;;;;5009475;28;20491;-71
2021/04/18 00:32:38;;;;;;;7.30;5.77;;;8.50;99.90;;;;;;5002281;28;20457;-72
2021/04/18 00:35:05;;;;;;;6.77;6.07;;;8.60;99.90;;;;;;5004711;28;21011;-69
2021/04/18 00:37:31;;;;;;;7.90;6.60;;;8.60;99.90;;;;;;5012447;28;20443;-71
2021/04/18 00:39:57;;;;;;;7.07;6.17;;;8.60;99.90;;;;;;4999940;28;20435;-71
2021/04/18 00:42:22;;;;;;;7.20;5.97;;;8.60;99.90;;;;;;5001670;28;20205;-68
2021/04/18 00:44:48;;;;;;;8.00;5.80;;;8.60;99.90;;;;;;5001701;28;20199;-69
2021/04/18 00:47:16;;;;;;;7.17;6.10;;;8.60;99.90;;;;;;5001322;28;20223;-71
2021/04/18 00:49:44;;;;;;;7.37;6.13;;;8.60;99.90;;;;;;4986813;28;20621;-70
2021/04/18 00:52:09;;;;;;;9.73;6.63;;;8.50;99.90;;;;;;5007132;28;22664;-69
2021/04/18 00:54:35;;;;;;;10.10;6.70;;;8.50;99.90;;;;;;5001727;28;20444;-71
2021/04/18 00:57:01;;;;;;;6.77;6.10;;;8.50;99.90;;;;;;5001984;28;20259;-71
2021/04/18 00:59:26;;;;;;;6.57;5.97;;;8.50;99.90;;;;;;5001008;28;20197;-71
2021/04/18 01:01:52;;;;;;;7.43;6.30;;;8.40;99.90;;;;;;5006770;28;20225;-70
2021/04/18 01:04:17;;;;;;;9.90;5.90;;;8.40;99.90;;;;;;5001855;28;20181;-70
2021/04/18 01:06:43;;;;;;;7.37;6.27;;;8.40;99.90;;;;;;5004715;28;20786;-70
2021/04/18 01:09:09;;;;;;;8.97;6.60;;;8.40;99.90;;;;;;5005267;28;20194;-70
2021/04/18 01:11:34;;;;;;;10.13;6.83;;;8.40;99.90;;;;;;5002679;28;20206;-68
2021/04/18 01:14:00;;;;;;;7.03;6.33;;;8.30;99.90;;;;;;5002387;28;20208;-72
2021/04/18 01:16:25;;;;;;;7.00;6.40;;;8.30;99.90;;;;;;5008435;28;20588;-69
2021/04/18 01:18:51;;;;;;;8.37;6.57;;;8.30;99.90;;;;;;5002325;28;20196;-70
2021/04/18 01:21:17;;;;;;;7.93;5.93;;;8.30;99.90;;;;;;5000633;28;20288;-70
2021/04/18 01:23:42;;;;;;;10.73;6.33;;;8.30;99.90;;;;;;5002186;28;20209;-70
2021/04/18 01:26:08;;;;;;;7.77;6.97;;;8.30;99.90;;;;;;5003534;28;20456;-68
2021/04/18 01:28:34;;;;;;;8.80;6.53;;;8.40;99.90;;;;;;5010440;28;20222;-70
2021/04/18 01:31:04;;;;;;;11.20;6.67;;;8.40;99.90;;;;;;5003918;28;20498;-70
2021/04/18 01:33:30;;;;;;;7.73;6.93;;;8.40;99.90;;;;;;5004944;28;20189;-70
2021/04/18 01:35:56;;;;;;;11.27;6.67;;;8.40;99.90;;;;;;5002248;28;20484;-71
2021/04/18 01:38:21;;;;;;;8.37;6.50;;;8.40;99.90;;;;;;5000171;28;20958;-71
2021/04/18 01:40:47;;;;;;;7.50;6.33;;;8.50;99.90;;;;;;5000081;28;21057;-70
2021/04/18 01:43:15;;;;;;;8.40;6.93;;;8.50;99.90;;;;;;5001410;28;20268;-68
2021/04/18 01:45:41;;;;;;;9.20;6.80;;;8.40;99.90;;;;;;5001881;28;20224;-69
2021/04/18 01:48:08;;;;;;;8.97;6.60;;;8.50;99.90;;;;;;5003346;28;20444;-70
2021/04/18 01:50:42;;;;;;;7.57;6.83;;;8.50;99.90;;;;;;4999617;28;21264;-70
2021/04/18 01:53:08;;;;;;;7.20;6.10;;;8.50;99.90;;;;;;5001192;28;20486;-70
2021/04/18 01:55:34;;;;;;;6.73;6.10;;;8.50;99.90;;;;;;5005915;28;20460;-70
2021/04/18 01:58:00;;;;;;;8.20;6.30;;;8.50;99.90;;;;;;5002205;28;20452;-72
2021/04/18 02:00:26;;;;;;;6.83;5.77;;;8.50;99.90;;;;;;5001167;28;20461;-70
2021/04/18 02:02:51;;;;;;;10.00;6.13;;;8.60;99.90;;;;;;5001678;28;20254;-70
2021/04/18 02:05:17;;;;;;;7.40;5.87;;;8.60;99.90;;;;;;5003951;28;20210;-71
2021/04/18 02:07:43;;;;;;;8.67;6.20;;;8.50;99.90;;;;;;5007984;28;20189;-70
2021/04/18 02:10:09;;;;;;;6.87;5.97;;;8.50;99.90;;;;;;5000767;28;20277;-71
2021/04/18 02:12:36;;;;;;;7.17;6.47;;;8.50;99.90;;;;;;4998276;28;20436;-72
2021/04/18 02:15:02;;;;;;;8.43;6.73;;;8.50;99.90;;;;;;4998960;28;20464;-69
2021/04/18 02:17:27;;;;;;;6.60;5.90;;;8.40;99.90;;;;;;5001824;28;20451;-69
2021/04/18 02:19:53;;;;;;;7.10;6.03;;;8.40;99.90;;;;;;5003550;28;22475;-70
2021/04/18 02:22:18;;;;;;;6.87;6.07;;;8.40;99.90;;;;;;5001850;28;20217;-70
2021/04/18 02:24:44;;;;;;;8.97;6.60;;;8.40;99.90;;;;;;5000563;28;20301;-70
2021/04/18 02:27:10;;;;;;;8.03;5.80;;;8.40;99.90;;;;;;5001557;28;20667;-71
2021/04/18 02:29:35;;;;;;;6.60;5.33;;;8.40;99.90;;;;;;4999792;28;20181;-69
2021/04/18 02:32:01;;;;;;;6.97;6.27;;;8.30;99.90;;;;;;5003113;28;20224;-70
2021/04/18 02:34:27;;;;;;;8.43;6.67;;;8.30;99.90;;;;;;5001727;28;20576;-69
2021/04/18 02:36:52;;;;;;;8.27;5.87;;;8.30;99.90;;;;;;5004800;28;20288;-69
2021/04/18 02:39:18;;;;;;;8.30;6.23;;;8.30;99.90;;;;;;5005759;28;20265;-70
2021/04/18 02:41:44;;;;;;;6.63;5.93;;;8.30;99.90;;;;;;4998683;28;20193;-71
2021/04/18 02:44:09;;;;;;;7.83;6.73;;;8.30;99.90;;;;;;5000916;28;20185;-70
2021/04/18 02:46:35;;;;;;;8.70;6.23;;;8.30;99.90;;;;;;4999348;28;20209;-70
2021/04/18 02:49:03;;;;;;;8.37;6.37;;;8.30;99.90;;;;;;5001879;28;20193;-71
2021/04/18 02:51:30;;;;;;;6.13;5.53;;;8.30;99.90;;;;;;4998496;28;20185;-69
2021/04/18 02:53:59;;;;;;;10.23;6.43;;;8.30;99.90;;;;;;4999091;28;20447;-69
2021/04/18 02:56:25;;;;;;;6.63;6.03;;;8.30;99.90;;;;;;5001084;28;20878;-69
2021/04/18 02:58:51;;;;;;;7.77;5.87;;;8.30;99.90;;;;;;5005163;28;20474;-72
2021/04/18 03:01:16;;;;;;;6.60;5.80;;;8.30;99.90;;;;;;5002701;28;20467;-72
2021/04/18 03:03:42;;;;;;;7.27;5.83;;;8.30;99.90;;;;;;5001604;28;20964;-70
2021/04/18 03:06:09;;;;;;;6.50;5.90;;;8.30;99.90;;;;;;5004653;28;20303;-70
2021/04/18 03:08:34;;;;;;;9.23;6.30;;;8.30;99.90;;;;;;5009450;28;20271;-69
2021/04/18 03:11:00;;;;;;;7.40;6.53;;;8.30;99.90;;;;;;5000504;28;20965;-70
2021/04/18 03:13:26;;;;;;;11.87;6.67;;;8.30;99.90;;;;;;5004770;28;20189;-69
2021/04/18 03:15:51;;;;;;;7.97;6.37;;;8.30;99.90;;;;;;4999076;28;20258;-70
2021/04/18 03:18:17;;;;;;;8.10;6.70;;;8.30;99.90;;;;;;5006447;28;20213;-71
2021/04/18 03:20:42;;;;;;;7.23;6.57;;;8.30;99.90;;;;;;5009938;28;20185;-70
2021/04/18 03:23:08;;;;;;;7.10;6.40;;;8.30;99.90;;;;;;5016953;28;20266;-70
2021/04/18 03:25:34;;;;;;;8.07;6.47;;;8.40;99.90;;;;;;5013162;28;20204;-72
2021/04/18 03:28:00;;;;;;;8.40;6.47;;;8.30;99.90;;;;;;5013163;28;20189;-70
2021/04/18 03:30:26;;;;;;;8.70;7.40;;;8.30;99.90;;;;;;5011645;28;21158;-70
2021/04/18 03:32:52;;;;;;;7.93;6.33;;;8.20;99.90;;;;;;5000097;28;20202;-71
2021/04/18 03:35:17;;;;;;;7.20;6.50;;;8.20;99.90;;;;;;5004471;28;20230;-71
2021/04/18 03:37:43;;;;;;;7.30;6.60;;;8.20;99.90;;;;;;5008876;28;20439;-69
2021/04/18 03:40:10;;;;;;;7.27;6.50;;;8.10;99.90;;;;;;5012424;28;20209;-71
2021/04/18 03:42:35;;;;;;;15.37;6.97;;;8.10;99.90;;;;;;5007532;28;20661;-69
2021/04/18 03:45:01;;;;;;;7.90;7.10;;;8.10;99.90;;;;;;5011392;28;20527;-69
2021/04/18 03:47:27;;;;;;;8.13;7.13;;;8.20;99.90;;;;;;5012636;28;20557;-70
2021/04/18 03:49:53;;;;;;;8.80;6.50;;;8.10;99.90;;;;;;5014258;28;20443;-72
2021/04/18 03:52:18;;;;;;;11.83;8.03;;;8.10;99.90;;;;;;5009405;28;20576;-71
2021/04/18 03:54:44;;;;;;;9.97;7.87;;;8.20;99.90;;;;;;5015827;28;20599;-70
2021/04/18 03:57:09;;;;;;;11.10;7.60;;;8.10;99.90;;;;;;5010857;28;20184;-69
2021/04/18 03:59:35;;;;;;;7.97;6.07;;;8.10;99.90;;;;;;5011006;28;20196;-72
2021/04/18 04:02:01;;;;;;;9.10;7.30;;;8.10;99.90;;;;;;5009569;28;20689;-72
2021/04/18 04:04:26;;;;;;;10.20;7.30;;;8.10;99.90;;;;;;5012624;28;20189;-71
2021/04/18 04:06:52;;;;;;;12.40;7.30;;;8.10;99.90;;;;;;5008785;28;20200;-70
2021/04/18 04:09:18;;;;;;;11.53;7.60;;;8.10;99.90;;;;;;5006232;28;20519;-69
2021/04/18 04:11:43;;;;;;;7.77;6.63;;;8.20;99.90;;;;;;5009273;28;20216;-71
2021/04/18 04:14:09;;;;;;;8.90;7.03;;;8.20;99.90;;;;;;5011185;28;20181;-69
2021/04/18 04:16:34;;;;;;;9.60;7.70;;;8.20;99.90;;;;;;5006626;28;20212;-70
2021/04/18 04:19:00;;;;;;;10.60;7.23;;;8.20;99.90;;;;;;5005415;28;20563;-71
2021/04/18 04:21:26;;;;;;;9.30;7.33;;;8.20;99.90;;;;;;5002891;28;20214;-71
2021/04/18 04:23:52;;;;;;;11.40;7.33;;;8.20;99.90;;;;;;5008433;28;20246;-71
2021/04/18 04:26:17;;;;;;;8.80;6.23;;;8.20;99.90;;;;;;5008601;28;20217;-69
2021/04/18 04:28:43;;;;;;;10.70;7.60;;;8.10;99.90;;;;;;5012271;28;20469;-68
2021/04/18 04:31:09;;;;;;;8.90;7.10;;;8.10;99.90;;;;;;5015516;28;20940;-70
2021/04/18 04:33:37;;;;;;;8.80;7.33;;;8.20;99.90;;;;;;5013886;28;20181;-69
2021/04/18 04:36:03;;;;;;;12.27;8.10;;;8.20;99.90;;;;;;5001928;28;20209;-72
2021/04/18 04:38:29;;;;;;;11.70;8.13;;;8.20;99.90;;;;;;5012702;28;20936;-69
2021/04/18 04:40:55;;;;;;;9.23;7.30;;;8.20;99.90;;;;;;5004791;28;20451;-70
2021/04/18 04:43:21;;;;;;;7.60;6.70;;;8.20;99.90;;;;;;5010742;28;20538;-72
2021/04/18 04:45:46;;;;;;;9.50;7.83;;;8.20;99.90;;;;;;5015198;28;20223;-70
2021/04/18 04:48:12;;;;;;;9.33;7.30;;;8.20;99.90;;;;;;5016299;28;20185;-69
2021/04/18 04:50:38;;;;;;;9.70;7.10;;;8.10;99.90;;;;;;5009780;28;20550;-69
2021/04/18 04:53:03;;;;;;;8.67;7.30;;;8.20;99.90;;;;;;5006921;28;20182;-72
2021/04/18 04:55:29;;;;;;;7.73;6.60;;;8.20;99.90;;;;;;5008114;28;20240;-68
2021/04/18 04:57:55;;;;;;;9.50;7.23;;;8.20;99.90;;;;;;5009953;28;20612;-68
2021/04/18 05:00:21;;;;;;;8.83;7.40;;;8.10;99.90;;;;;;5007418;28;20573;-72
2021/04/18 05:02:47;;;;;;;8.57;7.23;;;8.20;99.90;;;;;;5001721;28;20216;-71
2021/04/18 05:05:12;;;;;;;9.87;7.70;;;8.20;99.90;;;;;;5001594;28;20602;-70
2021/04/18 05:07:38;;;;;;;7.90;7.20;;;8.20;99.90;;;;;;5002358;28;20287;-70
2021/04/18 05:10:05;;;;;;;13.20;7.77;;;8.20;99.90;;;;;;5000427;28;20494;-69
2021/04/18 05:12:30;;;;;;;8.60;6.57;;;8.20;99.90;;;;;;5004026;28;20241;-69
2021/04/18 05:14:56;;;;;;;8.63;6.87;;;8.20;99.90;;;;;;5012993;28;20851;-70
2021/04/18 05:17:22;;;;;;;9.40;7.53;;;8.20;99.90;;;;;;5001791;28;20247;-69
2021/04/18 05:19:47;;;;;;;9.47;7.60;;;8.20;99.90;;;;;;5000496;28;20189;-73
2021/04/18 05:22:13;;;;;;;11.70;6.83;;;8.30;99.90;;;;;;5007296;28;20219;-70
2021/04/18 05:24:38;;;;;;;9.40;6.50;;;8.30;99.90;;;;;;5003474;28;20186;-72
2021/04/18 05:27:04;;;;;;;9.77;7.67;;;8.30;99.90;;;;;;5004372;28;20211;-72
2021/04/18 05:29:30;;;;;;;9.00;7.40;;;8.30;99.90;;;;;;5000849;28;20288;-71
2021/04/18 05:31:56;;;;;;;9.90;8.17;;;8.40;99.90;;;;;;5001443;28;20445;-71
2021/04/18 05:34:22;;;;;;;9.70;7.63;;;8.40;99.90;;;;;;5000490;28;20200;-71
2021/04/18 05:36:48;;;;;;;10.90;7.70;;;8.40;99.90;;;;;;4999430;28;20680;-70
2021/04/18 05:39:13;;;;;;;9.60;7.17;;;8.40;99.90;;;;;;5001337;28;20431;-69
2021/04/18 05:41:39;;;;;;;7.87;7.07;;;8.40;99.90;;;;;;5005146;28;20543;-73
2021/04/18 05:44:14;;;;;;;9.17;7.83;;;8.40;99.90;;;;;;5003338;28;20208;-71
2021/04/18 05:46:41;;;;;;;8.80;7.10;;;8.50;99.90;;;;;;5004081;28;20795;-71
2021/04/18 05:49:07;;;;;;;8.77;7.60;;;8.50;99.90;;;;;;5001036;28;20436;-69
2021/04/18 05:51:32;;;;;;;8.33;7.40;;;8.50;99.90;;;;;;5001381;28;20436;-69
2021/04/18 05:53:58;;;;;;;8.20;7.40;;;8.50;99.90;;;;;;5005999;28;20917;-72
2021/04/18 05:56:23;;;;;;;10.23;7.70;;;8.60;99.90;;;;;;5000233;28;20241;-70
2021/04/18 05:58:49;;;;;;;8.07;7.27;;;8.60;99.90;;;;;;5001642;28;20250;-68
2021/04/18 06:01:17;;;;;;;10.80;8.40;;;8.60;99.90;;;;;;4996624;28;20197;-73
2021/04/18 06:03:43;;;;;;;9.00;8.10;;;8.70;99.90;;;;;;5006240;28;20216;-70
2021/04/18 06:06:09;;;;;;;8.40;7.63;;;8.70;99.90;;;;;;4999694;28;20447;-69
2021/04/18 06:08:34;;;;;;;10.40;7.60;;;8.70;99.90;;;;;;5006860;28;20196;-68
2021/04/18 06:11:01;;;;;;;8.63;7.80;;;8.80;99.90;;;;;;4998083;28;20181;-70
2021/04/18 06:13:27;;;;;;;9.50;7.30;;;8.80;99.90;;;;;;4997351;28;22664;-71
2021/04/18 06:15:53;;;;;;;8.47;7.53;;;8.80;99.90;;;;;;5002170;28;20559;-71
2021/04/18 06:18:19;;;;;;;11.20;8.77;;;8.90;99.90;;;;;;5006352;28;20189;-69
2021/04/18 06:20:45;;;;;;;8.43;7.63;;;8.90;99.90;;;;;;5011270;28;20454;-70
2021/04/18 06:23:10;;;;;;;10.40;8.00;;;8.90;99.90;;;;;;5011227;28;20287;-70
2021/04/18 06:25:36;;;;;;;11.57;8.80;;;8.90;99.90;;;;;;5008936;28;20209;-73
2021/04/18 06:28:01;;;;;;;10.60;7.77;;;9.00;99.90;;;;;;5015365;28;20180;-71
2021/04/18 06:30:27;;;;;;;9.27;7.97;;;9.00;99.90;;;;;;5016106;28;20705;-72
2021/04/18 06:32:53;;;;;;;13.33;8.07;;;9.10;99.90;;;;;;5010364;28;20865;-69
2021/04/18 06:35:18;;;;;;;9.07;7.90;;;9.10;99.90;;;;;;5010270;28;20239;-70
2021/04/18 06:37:44;;;;;;;10.63;8.40;;;9.10;99.90;;;;;;5009143;28;20196;-70
2021/04/18 06:40:10;;;;;;;8.70;7.80;;;9.20;99.90;;;;;;5002953;28;20227;-70
2021/04/18 06:42:38;;;;;;;9.87;7.33;;;9.30;99.90;;;;;;5011389;28;20205;-72
2021/04/18 06:45:09;;;;;;;8.73;7.20;;;9.40;99.90;;;;;;5015696;28;20426;-72
2021/04/18 06:47:37;;;;;;;10.83;7.40;;;9.40;99.90;;;;;;5010725;28;20435;-70
2021/04/18 06:50:04;;;;;;;9.20;7.00;;;9.60;99.90;;;;;;5006789;28;20942;-70
2021/04/18 06:52:32;;;;;;;9.27;7.90;;;9.70;99.90;;;;;;5007891;28;20827;-72
2021/04/18 06:54:58;;;;;;;8.37;7.40;;;9.70;99.90;;;;;;5005086;28;20440;-71
2021/04/18 06:57:23;;;;;;;8.87;7.30;;;9.80;99.90;;;;;;5008080;28;20988;-74
2021/04/18 06:59:49;;;;;;;8.00;6.90;;;9.90;99.90;;;;;;5011861;28;20596;-71
2021/04/18 07:02:32;;;;;;;9.83;7.53;;;9.90;99.90;;;;;;5009675;28;20212;-72
2021/04/18 07:05:07;;;;;;;7.80;6.80;;;10.00;99.90;;;;;;5014386;28;20200;-70
2021/04/18 07:07:36;;;;;;;8.67;6.83;;;10.10;99.90;;;;;;5006819;28;20490;-70
2021/04/18 07:10:03;;;;;;;9.27;6.97;;;10.20;99.90;;;;;;5001324;28;20532;-72
2021/04/18 07:12:32;;;;;;;11.43;6.80;;;10.30;99.90;;;;;;5001102;28;20440;-73
2021/04/18 07:14:59;;;;;;;7.27;6.57;;;10.40;99.90;;;;;;4994724;28;20513;-71
2021/04/18 07:17:25;;;;;;;7.73;6.93;;;10.40;99.90;;;;;;4999591;28;20515;-68
2021/04/18 07:20:10;;;;;;;8.70;5.37;;;10.50;99.90;;;;;;4998275;28;20695;-68
2021/04/18 07:22:36;;;;;;;8.07;5.97;;;10.60;99.90;;;;;;4998467;28;20464;-71
2021/04/18 07:25:03;;;;;;;7.00;6.30;;;10.70;99.90;;;;;;4999764;28;20432;-71
2021/04/18 07:28:01;;;;;;;9.57;7.50;;;10.70;99.90;;;;;;5010388;28;20176;-70
2021/04/18 07:30:46;;;;;;;7.30;6.53;;;10.80;99.90;;;;;;5011327;28;20444;-70
2021/04/18 07:33:11;;;;;;;9.20;6.60;;;10.90;99.90;;;;;;5001668;28;20444;-71
2021/04/18 07:35:39;;;;;;;7.57;6.70;;;11.00;99.90;;;;;;5006417;28;20970;-71
2021/04/18 07:38:24;;;;;;;8.00;6.80;;;11.10;99.90;;;;;;5011272;28;20632;-71
2021/04/18 07:40:52;;;;;;;10.37;6.10;;;11.20;99.90;;;;;;5012819;28;20425;-72
2021/04/18 07:43:19;;;;;;;7.87;6.60;;;11.20;99.90;;;;;;5012812;28;20836;-72
2021/04/18 07:45:49;;;;;;;10.30;6.60;;;11.30;99.90;;;;;;5012582;28;20487;-72
2021/04/18 07:48:16;;;;;;;6.57;5.77;;;11.40;99.90;;;;;;5015006;28;20451;-73
2021/04/18 07:50:43;;;;;;;7.83;6.00;;;11.30;99.90;;;;;;5010024;28;20428;-70
2021/04/18 07:53:09;;;;;;;8.90;6.53;;;11.20;99.90;;;;;;5008869;28;20443;-71
2021/04/18 07:55:36;;;;;;;8.70;6.57;;;11.30;99.90;;;;;;5008159;28;20459;-73
2021/04/18 07:58:04;;;;;;;6.60;5.90;;;11.30;99.90;;;;;;5005015;28;21588;-71
2021/04/18 08:00:30;;;;;;;7.80;6.43;;;11.50;99.90;;;;;;5012288;28;20443;-72
2021/04/18 08:02:56;;;;;;;7.90;6.60;;;11.60;99.90;;;;;;5019402;28;20459;-74
2021/04/18 08:05:25;;;;;;;7.83;6.80;;;11.70;99.90;;;;;;5009162;28;20489;-71
2021/04/18 08:08:07;;;;;;;8.87;6.03;;;11.70;99.90;;;;;;5008668;28;20914;-72
2021/04/18 08:10:35;;;;;;;7.20;6.50;;;11.80;99.90;;;;;;5003251;28;20443;-75
2021/04/18 08:13:05;;;;;;;8.47;7.07;;;12.00;99.90;;;;;;4997544;28;20523;-71
2021/04/18 08:15:33;;;;;;;9.47;7.07;;;12.10;99.90;;;;;;5013011;28;20451;-70
2021/04/18 08:18:13;;;;;;;8.37;6.30;;;12.20;99.90;;;;;;5001420;28;20510;-71
2021/04/18 08:20:44;;;;;;;8.80;6.73;;;12.20;99.90;;;;;;4999577;28;20450;-70
2021/04/18 08:23:17;;;;;;;6.80;5.73;;;12.20;99.90;;;;;;5008888;28;20517;-71
2021/04/18 08:26:04;;;;;;;8.23;6.40;;;12.30;99.90;;;;;;5003164;28;20455;-72
2021/04/18 08:28:30;;;;;;;8.43;6.30;;;12.40;99.90;;;;;;5010653;28;20444;-73
2021/04/18 08:31:00;;;;;;;7.00;6.30;;;12.40;99.90;;;;;;5001609;28;20436;-72
2021/04/18 08:33:40;;;;;;;10.43;7.13;;;12.60;99.90;;;;;;5004087;28;20443;-71
2021/04/18 08:36:22;;;;;;;7.97;7.17;;;12.60;99.90;;;;;;5005980;28;20451;-72
2021/04/18 08:39:00;;;;;;;6.73;6.00;;;12.60;99.90;;;;;;5012393;28;20428;-73
2021/04/18 08:41:45;;;;;;;10.50;7.30;;;12.50;99.90;;;;;;5001538;28;20510;-73
2021/04/18 08:44:27;;;;;;;12.50;6.33;;;12.40;99.90;;;;;;5003235;28;20498;-71
2021/04/18 08:47:03;;;;;;;7.00;6.30;;;12.30;99.90;;;;;;5004402;28;20948;-72
2021/04/18 08:49:50;;;;;;;8.03;6.83;;;12.30;99.90;;;;;;5000405;28;20424;-72
2021/04/18 08:52:28;;;;;;;6.73;5.53;;;12.40;99.90;;;;;;5002909;28;21434;-71
2021/04/18 08:55:03;;;;;;;9.10;6.83;;;12.40;99.90;;;;;;5001161;28;21011;-71
2021/04/18 08:57:32;;;;;;;9.43;6.77;;;12.30;99.90;;;;;;5002675;28;20456;-70
2021/04/18 09:00:00;;;;;;;7.67;6.50;;;12.20;99.90;;;;;;5008544;28;20448;-72
2021/04/18 09:02:28;;;;;;;9.37;8.33;;;12.10;99.90;;;;;;5004294;28;20464;-72
2021/04/18 09:04:56;;;;;;;8.50;7.70;;;12.10;99.90;;;;;;4998236;28;20436;-72
2021/04/18 09:07:26;;;;;;;8.37;6.70;;;12.10;99.90;;;;;;5001853;28;20523;-72
2021/04/18 09:09:55;;;;;;;7.73;7.00;;;12.00;99.90;;;;;;5000553;28;20432;-72
2021/04/18 09:12:21;;;;;;;7.70;6.90;;;12.10;99.90;;;;;;5004860;28;20455;-73
2021/04/18 09:14:51;;;;;;;7.80;7.00;;;12.20;99.90;;;;;;5007353;28;20423;-72
2021/04/18 09:17:22;;;;;;;9.87;6.50;;;12.30;99.90;;;;;;5009874;28;20717;-72
2021/04/18 09:19:55;;;;;;;8.23;6.90;;;12.30;99.90;;;;;;4999817;28;20523;-71
2021/04/18 09:22:23;;;;;;;7.40;6.23;;;12.40;99.90;;;;;;5008678;28;20976;-69
2021/04/18 09:24:52;;;;;;;7.23;6.53;;;12.40;99.90;;;;;;5002157;28;20425;-70
2021/04/18 09:27:32;;;;;;;7.50;6.70;;;12.50;99.90;;;;;;5001169;28;20511;-71
2021/04/18 09:30:01;;;;;;;10.40;6.77;;;12.70;99.90;;;;;;4999017;28;20482;-71
2021/04/18 09:32:33;;;;;;;9.70;6.43;;;12.80;99.90;;;;;;5001265;28;20471;-70
2021/04/18 09:34:58;;;;;;;6.60;5.93;;;12.90;99.90;;;;;;5000185;28;20450;-73
2021/04/18 09:37:32;;;;;;;8.23;6.57;;;13.00;99.90;;;;;;4998990;28;20440;-70
2021/04/18 09:40:04;;;;;;;10.77;6.10;;;13.10;99.90;;;;;;4998561;28;20189;-71
2021/04/18 09:42:34;;;;;;;10.43;6.87;;;13.30;99.90;;;;;;4999346;28;21441;-69
2021/04/18 09:45:11;;;;;;;6.80;5.80;;;13.40;99.90;;;;;;4999669;28;20502;-73
2021/04/18 09:47:38;;;;;;;13.77;6.53;;;13.70;99.90;;;;;;5001962;28;20463;-71
2021/04/18 09:50:14;;;;;;;8.67;7.00;;;13.80;99.90;;;;;;5006117;28;20518;-70
2021/04/18 09:52:40;;;;;;;9.57;7.13;;;13.80;99.90;;;;;;5004731;28;20541;-70
2021/04/18 09:55:15;;;;;;;9.83;6.60;;;13.80;99.90;;;;;;4996808;28;20676;-69
2021/04/18 09:57:49;;;;;;;10.93;7.00;;;13.70;99.90;;;;;;5013593;28;20438;-69
2021/04/18 10:00:15;;;;;;;9.47;6.90;;;13.70;99.90;;;;;;5004492;28;20448;-70
2021/04/18 10:02:55;;;;;;;10.67;7.27;;;13.60;99.90;;;;;;5011120;28;20455;-71
2021/04/18 10:05:21;;;;;;;12.50;7.57;;;13.50;99.70;;;;;;5009510;28;20449;-70
2021/04/18 10:07:46;;;;;;;10.30;8.30;;;13.50;99.50;;;;;;5004803;28;20443;-71
2021/04/18 10:10:31;;;;;;;8.00;7.20;;;13.40;98.80;;;;;;5011969;28;20210;-70
2021/04/18 10:13:00;;;;;;;9.80;7.57;;;13.40;98.90;;;;;;5006962;28;20184;-69
2021/04/18 10:15:25;;;;;;;9.30;6.97;;;13.30;99.10;;;;;;5002724;28;20459;-72
2021/04/18 10:17:51;;;;;;;8.07;7.23;;;13.40;98.90;;;;;;5004148;28;20455;-70
2021/04/18 10:20:27;;;;;;;7.90;6.97;;;13.40;98.80;;;;;;5009736;28;20193;-72
2021/04/18 10:23:31;;;;;;;8.33;7.10;;;13.50;98.70;;;;;;5004736;28;20211;-71
2021/04/18 10:25:57;;;;;;;10.80;8.40;;;13.50;98.90;;;;;;5002506;28;20455;-70
2021/04/18 10:28:22;;;;;;;9.37;7.37;;;13.50;99.00;;;;;;5016542;28;20458;-71
2021/04/18 10:30:48;;;;;;;11.10;7.50;;;13.50;98.70;;;;;;5014080;28;20260;-70
2021/04/18 10:33:14;;;;;;;10.43;6.97;;;13.30;98.60;;;;;;5015218;28;20185;-70
2021/04/18 10:35:39;;;;;;;11.70;7.97;;;13.10;99.00;;;;;;5010295;28;20209;-71
2021/04/18 10:38:05;;;;;;;10.37;7.50;;;13.10;99.20;;;;;;5014368;28;20239;-71
2021/04/18 10:40:30;;;;;;;16.33;8.70;;;12.90;99.30;;;;;;5017856;28;20176;-72
2021/04/18 10:42:56;;;;;;;11.67;7.40;;;12.80;99.60;;;;;;5014372;28;20244;-70
2021/04/18 10:45:22;;;;;;;14.60;8.20;;;12.80;99.90;;;;;;5009031;28;20202;-71
2021/04/18 10:47:48;;;;;;;10.83;8.10;;;12.70;99.90;;;;;;5009026;28;20713;-71
2021/04/18 10:50:14;;;;;;;12.20;8.63;;;12.60;99.90;;;;;;5013696;28;20522;-71
2021/04/18 10:52:40;;;;;;;15.17;8.50;;;12.60;99.90;;;;;;5013813;28;20260;-70
2021/04/18 10:55:08;;;;;;;9.77;8.20;;;12.50;99.90;;;;;;5013690;28;20526;-70
2021/04/18 10:57:33;;;;;;;10.90;8.10;;;12.50;99.90;;;;;;5010410;28;20446;-70
2021/04/18 10:59:59;;;;;;;15.17;9.10;;;12.40;99.90;;;;;;5016761;28;20502;-71
2021/04/18 11:02:25;;;;;;;11.87;7.70;;;12.40;99.90;;;;;;5009853;28;20205;-71
2021/04/18 11:04:50;;;;;;;13.17;9.03;;;12.30;99.90;;;;;;5010014;28;20182;-71
2021/04/18 11:07:17;;;;;;;9.57;7.27;;;12.30;99.90;;;;;;5016703;28;20615;-72
2021/04/18 11:09:43;;;;;;;15.87;9.20;;;12.30;99.90;;;;;;5005320;28;20195;-71
2021/04/18 11:12:17;;;;;;;12.03;9.20;;;12.30;99.90;;;;;;5015756;28;20927;-70
2021/04/18 11:14:42;;;;;;;12.50;8.70;;;12.30;99.90;;;;;;5003269;28;20320;-70
2021/04/18 11:17:08;;;;;;;16.27;9.23;;;12.30;99.90;;;;;;5013716;28;21388;-70
2021/04/18 11:19:34;;;;;;;10.17;9.03;;;12.30;99.90;;;;;;5012344;28;20664;-72
2021/04/18 11:21:59;;;;;;;14.90;9.10;;;12.30;99.90;;;;;;5012225;28;20598;-70
2021/04/18 11:24:26;;;;;;;9.97;8.20;;;12.30;99.90;;;;;;5009281;28;20200;-71
2021/04/18 11:26:52;;;;;;;11.23;8.80;;;12.30;99.90;;;;;;5015398;28;20208;-70
2021/04/18 11:29:17;;;;;;;10.40;7.93;;;12.30;99.90;;;;;;5011737;28;20455;-71
2021/04/18 11:31:44;;;;;;;9.60;8.60;;;12.20;99.90;;;;;;5017340;28;20420;-71
2021/04/18 11:34:10;;;;;;;11.10;8.60;;;12.30;99.90;;;;;;5011407;28;20308;-71
2021/04/18 11:36:36;;;;;;;12.50;8.50;;;12.30;99.90;;;;;;5013966;28;20530;-71
2021/04/18 11:39:02;;;;;;;12.27;8.73;;;12.40;99.90;;;;;;5019512;28;20268;-72
2021/04/18 11:41:28;;;;;;;19.43;9.17;;;12.50;99.90;;;;;;5005407;28;20978;-69
2021/04/18 11:43:54;;;;;;;10.90;8.40;;;12.70;99.90;;;;;;5008856;28;20466;-70
2021/04/18 11:46:19;;;;;;;10.07;8.27;;;12.80;99.90;;;;;;5003782;28;20236;-71
2021/04/18 11:48:48;;;;;;;14.27;8.03;;;12.90;99.90;;;;;;5010050;28;20576;-71
2021/04/18 11:51:14;;;;;;;12.57;8.13;;;13.00;99.90;;;;;;5009379;28;20185;-71
2021/04/18 11:53:39;;;;;;;11.90;7.50;;;13.20;99.90;;;;;;5009647;28;20501;-71
2021/04/18 11:56:05;;;;;;;10.27;7.70;;;13.40;99.90;;;;;;5013030;28;20247;-73
2021/04/18 11:58:31;;;;;;;10.07;8.20;;;13.50;99.90;;;;;;5013126;28;20221;-73
2021/04/18 12:00:56;;;;;;;11.80;8.17;;;13.50;99.90;;;;;;5005376;28;20469;-71
2021/04/18 12:03:22;;;;;;;9.30;7.53;;;13.60;99.90;;;;;;5008927;28;20217;-71
2021/04/18 12:05:48;;;;;;;8.90;6.93;;;13.30;99.90;;;;;;5010668;28;20228;-72
2021/04/18 12:08:16;;;;;;;8.80;7.60;;;13.20;99.90;;;;;;5005518;28;20186;-72
2021/04/18 12:10:42;;;;;;;12.03;9.30;;;13.20;99.90;;;;;;5005444;28;20193;-73
2021/04/18 12:13:08;;;;;;;9.73;7.50;;;13.30;99.90;;;;;;5003015;28;20537;-74
2021/04/18 12:15:33;;;;;;;8.33;7.53;;;13.30;99.90;;;;;;5007917;28;21373;-73
2021/04/18 12:18:00;;;;;;;12.17;8.93;;;13.40;99.90;;;;;;4999781;28;20687;-72
2021/04/18 12:20:26;;;;;;;10.43;8.33;;;13.70;99.90;;;;;;5002353;28;20204;-73
2021/04/18 12:22:51;;;;;;;12.17;7.83;;;14.00;99.90;;;;;;5001008;28;21001;-71
2021/04/18 12:25:17;;;;;;;10.30;8.17;;;14.40;99.90;;;;;;5006986;28;20951;-74
2021/04/18 12:27:43;;;;;;;10.60;8.00;;;14.90;99.90;;;;;;5001987;28;20188;-70
2021/04/18 12:30:10;;;;;;;9.77;7.77;;;15.60;99.90;;;;;;5013907;28;20271;-67
2021/04/18 12:32:36;;;;;;;9.50;8.17;;;15.90;99.90;;;;;;5010133;28;20635;-74
2021/04/18 12:35:03;;;;;;;13.47;9.40;;;16.10;99.90;;;;;;5015359;28;20443;-71
2021/04/18 12:37:29;;;;;;;9.43;7.57;;;16.40;99.50;;;;;;5019267;28;20514;-72
2021/04/18 12:39:56;;;;;;;10.00;8.20;;;16.50;97.30;;;;;;5019695;28;20489;-73
2021/04/18 12:42:22;;;;;;;9.43;7.17;;;16.40;96.80;;;;;;5019641;28;20634;-70
2021/04/18 12:44:50;;;;;;;10.20;8.37;;;16.30;95.70;;;;;;5015764;28;20553;-69
2021/04/18 12:47:16;;;;;;;10.27;7.47;;;16.20;95.10;;;;;;5014976;28;20962;-71
2021/04/18 12:49:43;;;;;;;9.63;8.53;;;16.30;95.30;;;;;;5014626;28;20436;-72
2021/04/18 12:52:09;;;;;;;11.17;8.57;;;16.20;94.80;;;;;;5020233;28;20188;-71